sensor_id;sensor_type;location;lat;lon;timestamp;temperature;humidity
6407;DHT22;3236;51.022;6.818;2023-07-30T00:01:25;16.10;99.90
6407;DHT22;3236;51.022;6.818;2023-07-30T00:03:52;15.90;99.90
6407;DHT22;3236;51.022;6.818;2023-07-30T00:06:19;16.20;99.90
6407;DHT22;3236;51.022;6.818;2023-07-30T00:08:46;15.70;99.90
6407;DHT22;3236;51.022;6.818;2023-07-30T00:11:13;15.90;99.90
6407;DHT22;3236;51.022;6.818;2023-07-30T00:13:42;16.10;99.90
6407;DHT22;3236;51.022;6.818;2023-07-30T00:16:09;16.50;99.90
6407;DHT22;3236;51.022;6.818;2023-07-30T00:18:36;16.00;99.90
6407;DHT22;3236;51.022;6.818;2023-07-30T00:21:03;16.30;99.90
6407;DHT22;3236;51.022;6.818;2023-07-30T00:23:30;16.40;99.90
6407;DHT22;3236;51.022;6.818;2023-07-30T00:25:57;16.30;99.90
6407;DHT22;3236;51.022;6.818;2023-07-30T00:28:24;16.00;99.90
6407;DHT22;3236;51.022;6.818;2023-07-30T00:30:53;16.10;99.90
6407;DHT22;3236;51.022;6.818;2023-07-30T00:35:49;16.20;99.90
6407;DHT22;3236;51.022;6.818;2023-07-30T00:38:17;16.50;99.90
6407;DHT22;3236;51.022;6.818;2023-07-30T00:40:44;15.50;99.90
6407;DHT22;3236;51.022;6.818;2023-07-30T00:43:11;15.80;99.90
6407;DHT22;3236;51.022;6.818;2023-07-30T00:45:41;15.80;99.90
6407;DHT22;3236;51.022;6.818;2023-07-30T00:48:11;15.90;99.90
6407;DHT22;3236;51.022;6.818;2023-07-30T00:50:39;16.20;99.90
6407;DHT22;3236;51.022;6.818;2023-07-30T00:53:09;15.80;99.90
6407;DHT22;3236;51.022;6.818;2023-07-30T00:55:36;15.50;99.90
6407;DHT22;3236;51.022;6.818;2023-07-30T00:58:04;15.80;99.90
6407;DHT22;3236;51.022;6.818;2023-07-30T01:02:59;15.80;99.90
6407;DHT22;3236;51.022;6.818;2023-07-30T01:05:28;15.90;99.90
6407;DHT22;3236;51.022;6.818;2023-07-30T01:07:55;15.90;99.90
6407;DHT22;3236;51.022;6.818;2023-07-30T01:10:22;16.10;99.90
6407;DHT22;3236;51.022;6.818;2023-07-30T01:12:50;15.90;99.90
6407;DHT22;3236;51.022;6.818;2023-07-30T01:15:18;16.30;99.90
6407;DHT22;3236;51.022;6.818;2023-07-30T01:17:45;16.00;99.90
6407;DHT22;3236;51.022;6.818;2023-07-30T01:22:41;16.30;99.90
6407;DHT22;3236;51.022;6.818;2023-07-30T01:25:08;16.30;99.90
6407;DHT22;3236;51.022;6.818;2023-07-30T01:27:37;16.30;99.90
6407;DHT22;3236;51.022;6.818;2023-07-30T01:30:11;16.30;99.90
6407;DHT22;3236;51.022;6.818;2023-07-30T01:32:41;16.10;99.90
6407;DHT22;3236;51.022;6.818;2023-07-30T01:35:08;16.70;99.90
6407;DHT22;3236;51.022;6.818;2023-07-30T01:37:37;16.70;99.90
6407;DHT22;3236;51.022;6.818;2023-07-30T01:40:08;16.70;99.90
6407;DHT22;3236;51.022;6.818;2023-07-30T01:42:36;17.10;99.90
6407;DHT22;3236;51.022;6.818;2023-07-30T01:45:04;16.60;99.90
6407;DHT22;3236;51.022;6.818;2023-07-30T01:47:32;17.10;99.90
6407;DHT22;3236;51.022;6.818;2023-07-30T01:49:59;16.80;99.90
6407;DHT22;3236;51.022;6.818;2023-07-30T01:52:26;16.80;99.90
6407;DHT22;3236;51.022;6.818;2023-07-30T01:54:53;16.70;99.90
6407;DHT22;3236;51.022;6.818;2023-07-30T01:57:23;16.90;99.90
6407;DHT22;3236;51.022;6.818;2023-07-30T01:59:50;16.90;99.90
6407;DHT22;3236;51.022;6.818;2023-07-30T02:02:17;16.80;99.90
6407;DHT22;3236;51.022;6.818;2023-07-30T02:04:44;17.20;99.90
6407;DHT22;3236;51.022;6.818;2023-07-30T02:07:11;16.80;99.90
6407;DHT22;3236;51.022;6.818;2023-07-30T02:09:38;17.00;99.90
6407;DHT22;3236;51.022;6.818;2023-07-30T02:12:06;17.10;99.90
6407;DHT22;3236;51.022;6.818;2023-07-30T02:14:34;16.80;99.90
6407;DHT22;3236;51.022;6.818;2023-07-30T02:17:02;16.90;99.90
6407;DHT22;3236;51.022;6.818;2023-07-30T02:19:29;16.80;99.90
6407;DHT22;3236;51.022;6.818;2023-07-30T02:21:56;16.80;99.90
6407;DHT22;3236;51.022;6.818;2023-07-30T02:24:23;16.70;99.90
6407;DHT22;3236;51.022;6.818;2023-07-30T02:26:50;16.90;99.90
6407;DHT22;3236;51.022;6.818;2023-07-30T02:29:17;16.70;99.90
6407;DHT22;3236;51.022;6.818;2023-07-30T02:31:45;16.30;99.90
6407;DHT22;3236;51.022;6.818;2023-07-30T02:34:12;16.20;99.90
6407;DHT22;3236;51.022;6.818;2023-07-30T02:36:39;16.20;99.90
6407;DHT22;3236;51.022;6.818;2023-07-30T02:39:06;16.40;99.90
6407;DHT22;3236;51.022;6.818;2023-07-30T02:41:33;16.40;99.90
6407;DHT22;3236;51.022;6.818;2023-07-30T02:44:00;16.60;99.90
6407;DHT22;3236;51.022;6.818;2023-07-30T02:46:28;16.00;99.90
6407;DHT22;3236;51.022;6.818;2023-07-30T02:48:56;16.80;99.90
6407;DHT22;3236;51.022;6.818;2023-07-30T02:51:23;16.10;99.90
6407;DHT22;3236;51.022;6.818;2023-07-30T02:53:52;16.00;99.90
6407;DHT22;3236;51.022;6.818;2023-07-30T02:56:20;16.00;99.90
6407;DHT22;3236;51.022;6.818;2023-07-30T02:58:47;16.30;99.90
6407;DHT22;3236;51.022;6.818;2023-07-30T03:01:14;16.30;99.90
6407;DHT22;3236;51.022;6.818;2023-07-30T03:03:41;16.30;99.90
6407;DHT22;3236;51.022;6.818;2023-07-30T03:06:09;16.20;99.90
6407;DHT22;3236;51.022;6.818;2023-07-30T03:08:36;16.60;99.90
6407;DHT22;3236;51.022;6.818;2023-07-30T03:11:04;16.30;99.90
6407;DHT22;3236;51.022;6.818;2023-07-30T03:13:31;16.30;99.90
6407;DHT22;3236;51.022;6.818;2023-07-30T03:15:58;16.70;99.90
6407;DHT22;3236;51.022;6.818;2023-07-30T03:18:25;16.30;99.90
6407;DHT22;3236;51.022;6.818;2023-07-30T03:20:58;16.60;99.90
6407;DHT22;3236;51.022;6.818;2023-07-30T03:23:26;15.70;99.90
6407;DHT22;3236;51.022;6.818;2023-07-30T03:25:53;16.50;99.90
6407;DHT22;3236;51.022;6.818;2023-07-30T03:28:20;16.30;99.90
6407;DHT22;3236;51.022;6.818;2023-07-30T03:30:47;16.30;99.90
6407;DHT22;3236;51.022;6.818;2023-07-30T03:33:14;16.00;99.90
6407;DHT22;3236;51.022;6.818;2023-07-30T03:35:42;16.20;99.90
6407;DHT22;3236;51.022;6.818;2023-07-30T03:38:09;16.10;99.90
6407;DHT22;3236;51.022;6.818;2023-07-30T03:40:37;16.10;99.90
6407;DHT22;3236;51.022;6.818;2023-07-30T03:43:04;16.00;99.90
6407;DHT22;3236;51.022;6.818;2023-07-30T03:45:31;16.00;99.90
6407;DHT22;3236;51.022;6.818;2023-07-30T03:47:58;15.70;99.90
6407;DHT22;3236;51.022;6.818;2023-07-30T03:50:25;15.70;99.90
6407;DHT22;3236;51.022;6.818;2023-07-30T03:52:53;15.90;99.90
6407;DHT22;3236;51.022;6.818;2023-07-30T03:55:20;15.70;99.90
6407;DHT22;3236;51.022;6.818;2023-07-30T03:57:48;15.80;99.90
6407;DHT22;3236;51.022;6.818;2023-07-30T04:00:15;15.70;99.90
6407;DHT22;3236;51.022;6.818;2023-07-30T04:02:43;15.40;99.90
6407;DHT22;3236;51.022;6.818;2023-07-30T04:07:37;16.10;99.90
6407;DHT22;3236;51.022;6.818;2023-07-30T04:10:05;16.20;99.90
6407;DHT22;3236;51.022;6.818;2023-07-30T04:12:32;15.70;99.90
6407;DHT22;3236;51.022;6.818;2023-07-30T04:15:03;15.70;99.90
6407;DHT22;3236;51.022;6.818;2023-07-30T04:17:30;15.70;99.90
6407;DHT22;3236;51.022;6.818;2023-07-30T04:24:52;16.20;99.90
6407;DHT22;3236;51.022;6.818;2023-07-30T04:27:20;15.60;99.90
6407;DHT22;3236;51.022;6.818;2023-07-30T04:29:47;15.90;99.90
6407;DHT22;3236;51.022;6.818;2023-07-30T04:32:16;15.90;99.90
6407;DHT22;3236;51.022;6.818;2023-07-30T04:39:37;16.10;99.90
6407;DHT22;3236;51.022;6.818;2023-07-30T04:42:05;16.40;99.90
6407;DHT22;3236;51.022;6.818;2023-07-30T04:44:32;16.30;99.90
6407;DHT22;3236;51.022;6.818;2023-07-30T04:46:59;16.10;99.90
6407;DHT22;3236;51.022;6.818;2023-07-30T04:49:28;15.70;99.90
6407;DHT22;3236;51.022;6.818;2023-07-30T04:51:55;15.80;99.90
6407;DHT22;3236;51.022;6.818;2023-07-30T04:54:22;15.90;99.90
6407;DHT22;3236;51.022;6.818;2023-07-30T04:56:49;16.00;99.90
6407;DHT22;3236;51.022;6.818;2023-07-30T04:59:16;16.40;99.90
6407;DHT22;3236;51.022;6.818;2023-07-30T05:01:43;16.10;99.90
6407;DHT22;3236;51.022;6.818;2023-07-30T05:06:39;16.50;99.90
6407;DHT22;3236;51.022;6.818;2023-07-30T05:09:06;16.70;99.90
6407;DHT22;3236;51.022;6.818;2023-07-30T05:11:33;16.20;99.90
6407;DHT22;3236;51.022;6.818;2023-07-30T05:14:00;16.60;99.90
6407;DHT22;3236;51.022;6.818;2023-07-30T05:21:24;15.90;99.90
6407;DHT22;3236;51.022;6.818;2023-07-30T05:23:53;15.90;99.90
6407;DHT22;3236;51.022;6.818;2023-07-30T05:28:47;16.50;99.90
6407;DHT22;3236;51.022;6.818;2023-07-30T05:31:14;16.60;99.90
6407;DHT22;3236;51.022;6.818;2023-07-30T05:33:41;16.30;99.90
6407;DHT22;3236;51.022;6.818;2023-07-30T05:38:35;16.10;99.90
6407;DHT22;3236;51.022;6.818;2023-07-30T05:41:04;16.40;99.90
6407;DHT22;3236;51.022;6.818;2023-07-30T05:45:58;16.20;99.90
6407;DHT22;3236;51.022;6.818;2023-07-30T05:50:53;16.60;99.90
6407;DHT22;3236;51.022;6.818;2023-07-30T05:53:20;16.50;99.90
6407;DHT22;3236;51.022;6.818;2023-07-30T05:55:47;16.10;99.90
6407;DHT22;3236;51.022;6.818;2023-07-30T05:58:16;15.90;99.90
6407;DHT22;3236;51.022;6.818;2023-07-30T06:00:43;15.80;99.90
6407;DHT22;3236;51.022;6.818;2023-07-30T06:03:10;16.20;99.90
6407;DHT22;3236;51.022;6.818;2023-07-30T06:05:39;16.50;99.90
6407;DHT22;3236;51.022;6.818;2023-07-30T06:08:07;16.60;99.90
6407;DHT22;3236;51.022;6.818;2023-07-30T06:13:02;16.30;99.90
6407;DHT22;3236;51.022;6.818;2023-07-30T06:15:31;16.70;99.90
6407;DHT22;3236;51.022;6.818;2023-07-30T06:17:58;16.80;99.90
6407;DHT22;3236;51.022;6.818;2023-07-30T06:20:25;16.60;99.90
6407;DHT22;3236;51.022;6.818;2023-07-30T06:22:52;16.60;99.90
6407;DHT22;3236;51.022;6.818;2023-07-30T06:25:19;17.10;99.90
6407;DHT22;3236;51.022;6.818;2023-07-30T06:27:47;16.60;99.90
6407;DHT22;3236;51.022;6.818;2023-07-30T06:30:14;17.20;99.90
6407;DHT22;3236;51.022;6.818;2023-07-30T06:32:42;17.20;99.90
6407;DHT22;3236;51.022;6.818;2023-07-30T06:35:09;17.00;99.90
6407;DHT22;3236;51.022;6.818;2023-07-30T06:40:05;16.30;99.90
6407;DHT22;3236;51.022;6.818;2023-07-30T06:42:32;16.60;99.90
6407;DHT22;3236;51.022;6.818;2023-07-30T06:44:59;16.40;99.90
6407;DHT22;3236;51.022;6.818;2023-07-30T06:47:33;16.70;99.90
6407;DHT22;3236;51.022;6.818;2023-07-30T06:50:01;16.70;99.90
6407;DHT22;3236;51.022;6.818;2023-07-30T06:52:29;16.30;99.90
6407;DHT22;3236;51.022;6.818;2023-07-30T06:54:56;16.60;99.90
6407;DHT22;3236;51.022;6.818;2023-07-30T06:57:25;16.90;99.90
6407;DHT22;3236;51.022;6.818;2023-07-30T07:02:19;16.50;99.90
6407;DHT22;3236;51.022;6.818;2023-07-30T07:04:46;16.50;99.90
6407;DHT22;3236;51.022;6.818;2023-07-30T07:07:14;16.60;99.90
6407;DHT22;3236;51.022;6.818;2023-07-30T07:09:54;17.00;99.90
6407;DHT22;3236;51.022;6.818;2023-07-30T07:12:21;16.90;99.90
6407;DHT22;3236;51.022;6.818;2023-07-30T07:17:15;17.20;99.90
6407;DHT22;3236;51.022;6.818;2023-07-30T07:19:42;17.30;99.90
6407;DHT22;3236;51.022;6.818;2023-07-30T07:22:10;17.70;99.90
6407;DHT22;3236;51.022;6.818;2023-07-30T07:24:38;17.30;99.90
6407;DHT22;3236;51.022;6.818;2023-07-30T07:27:06;18.00;99.90
6407;DHT22;3236;51.022;6.818;2023-07-30T07:32:00;17.80;99.90
6407;DHT22;3236;51.022;6.818;2023-07-30T07:34:27;17.80;99.90
6407;DHT22;3236;51.022;6.818;2023-07-30T07:36:54;17.30;99.90
6407;DHT22;3236;51.022;6.818;2023-07-30T07:41:50;17.90;99.90
6407;DHT22;3236;51.022;6.818;2023-07-30T07:44:17;17.90;99.90
6407;DHT22;3236;51.022;6.818;2023-07-30T07:46:44;17.80;99.90
6407;DHT22;3236;51.022;6.818;2023-07-30T07:49:11;17.50;99.90
6407;DHT22;3236;51.022;6.818;2023-07-30T07:54:06;17.90;99.90
6407;DHT22;3236;51.022;6.818;2023-07-30T07:56:33;17.30;99.90
6407;DHT22;3236;51.022;6.818;2023-07-30T07:59:01;17.40;99.90
6407;DHT22;3236;51.022;6.818;2023-07-30T08:01:29;17.50;99.90
6407;DHT22;3236;51.022;6.818;2023-07-30T08:03:56;17.40;99.90
6407;DHT22;3236;51.022;6.818;2023-07-30T08:06:23;17.40;99.90
6407;DHT22;3236;51.022;6.818;2023-07-30T08:08:50;17.40;99.90
6407;DHT22;3236;51.022;6.818;2023-07-30T08:11:17;18.10;99.90
6407;DHT22;3236;51.022;6.818;2023-07-30T08:13:44;18.10;99.90
6407;DHT22;3236;51.022;6.818;2023-07-30T08:16:13;18.20;99.90
6407;DHT22;3236;51.022;6.818;2023-07-30T08:18:40;18.00;99.90
6407;DHT22;3236;51.022;6.818;2023-07-30T08:21:08;17.50;99.90
6407;DHT22;3236;51.022;6.818;2023-07-30T08:26:02;17.40;99.90
6407;DHT22;3236;51.022;6.818;2023-07-30T08:31:00;17.30;99.90
6407;DHT22;3236;51.022;6.818;2023-07-30T08:33:29;17.30;99.90
6407;DHT22;3236;51.022;6.818;2023-07-30T08:35:56;17.90;99.90
6407;DHT22;3236;51.022;6.818;2023-07-30T08:38:24;18.30;99.90
6407;DHT22;3236;51.022;6.818;2023-07-30T08:40:53;18.30;99.90
6407;DHT22;3236;51.022;6.818;2023-07-30T08:43:26;18.70;99.90
6407;DHT22;3236;51.022;6.818;2023-07-30T08:45:56;18.80;99.90
6407;DHT22;3236;51.022;6.818;2023-07-30T08:48:25;18.20;99.90
6407;DHT22;3236;51.022;6.818;2023-07-30T08:50:56;18.70;99.90
6407;DHT22;3236;51.022;6.818;2023-07-30T08:53:24;18.60;99.90
6407;DHT22;3236;51.022;6.818;2023-07-30T08:55:53;19.00;99.90
6407;DHT22;3236;51.022;6.818;2023-07-30T08:58:21;19.20;99.90
6407;DHT22;3236;51.022;6.818;2023-07-30T09:00:49;18.80;99.90
6407;DHT22;3236;51.022;6.818;2023-07-30T09:03:18;18.60;99.90
6407;DHT22;3236;51.022;6.818;2023-07-30T09:08:16;19.30;99.90
6407;DHT22;3236;51.022;6.818;2023-07-30T09:10:43;19.00;99.90
6407;DHT22;3236;51.022;6.818;2023-07-30T09:15:38;19.30;99.90
6407;DHT22;3236;51.022;6.818;2023-07-30T09:18:08;18.80;99.90
6407;DHT22;3236;51.022;6.818;2023-07-30T09:20:39;19.20;99.90
6407;DHT22;3236;51.022;6.818;2023-07-30T09:23:06;19.30;99.90
6407;DHT22;3236;51.022;6.818;2023-07-30T09:25:35;19.40;99.90
6407;DHT22;3236;51.022;6.818;2023-07-30T09:28:02;18.60;99.90
6407;DHT22;3236;51.022;6.818;2023-07-30T09:30:30;19.70;99.90
6407;DHT22;3236;51.022;6.818;2023-07-30T09:32:59;19.70;99.90
6407;DHT22;3236;51.022;6.818;2023-07-30T09:35:26;19.70;99.90
6407;DHT22;3236;51.022;6.818;2023-07-30T09:37:58;19.40;99.90
6407;DHT22;3236;51.022;6.818;2023-07-30T09:40:36;20.30;99.90
6407;DHT22;3236;51.022;6.818;2023-07-30T09:43:05;20.60;99.90
6407;DHT22;3236;51.022;6.818;2023-07-30T09:45:35;20.80;99.90
6407;DHT22;3236;51.022;6.818;2023-07-30T09:48:03;21.20;99.90
6407;DHT22;3236;51.022;6.818;2023-07-30T09:50:31;20.80;99.90
6407;DHT22;3236;51.022;6.818;2023-07-30T09:52:59;21.20;99.90
6407;DHT22;3236;51.022;6.818;2023-07-30T09:55:27;20.80;99.90
6407;DHT22;3236;51.022;6.818;2023-07-30T09:57:56;20.50;99.90
6407;DHT22;3236;51.022;6.818;2023-07-30T10:00:23;20.00;99.90
6407;DHT22;3236;51.022;6.818;2023-07-30T10:02:53;20.40;99.90
6407;DHT22;3236;51.022;6.818;2023-07-30T10:05:25;21.50;99.90
6407;DHT22;3236;51.022;6.818;2023-07-30T10:07:57;22.00;98.60
6407;DHT22;3236;51.022;6.818;2023-07-30T10:10:25;21.10;96.10
6407;DHT22;3236;51.022;6.818;2023-07-30T10:12:57;20.50;99.90
6407;DHT22;3236;51.022;6.818;2023-07-30T10:15:26;20.60;98.90
6407;DHT22;3236;51.022;6.818;2023-07-30T10:17:55;20.90;98.00
6407;DHT22;3236;51.022;6.818;2023-07-30T10:20:24;21.70;90.60
6407;DHT22;3236;51.022;6.818;2023-07-30T10:22:52;21.60;84.10
6407;DHT22;3236;51.022;6.818;2023-07-30T10:27:50;21.30;69.70
6407;DHT22;3236;51.022;6.818;2023-07-30T10:30:20;21.30;76.00
6407;DHT22;3236;51.022;6.818;2023-07-30T10:33:01;21.60;83.60
6407;DHT22;3236;51.022;6.818;2023-07-30T10:35:35;21.10;85.10
6407;DHT22;3236;51.022;6.818;2023-07-30T10:38:16;20.50;92.50
6407;DHT22;3236;51.022;6.818;2023-07-30T10:40:59;20.60;93.80
6407;DHT22;3236;51.022;6.818;2023-07-30T10:43:28;20.70;98.80
6407;DHT22;3236;51.022;6.818;2023-07-30T10:45:57;19.80;96.30
6407;DHT22;3236;51.022;6.818;2023-07-30T10:48:34;21.10;96.70
6407;DHT22;3236;51.022;6.818;2023-07-30T10:51:04;21.30;91.90
6407;DHT22;3236;51.022;6.818;2023-07-30T10:53:31;21.90;84.30
6407;DHT22;3236;51.022;6.818;2023-07-30T10:56:00;22.80;75.20
6407;DHT22;3236;51.022;6.818;2023-07-30T10:58:29;23.00;51.00
6407;DHT22;3236;51.022;6.818;2023-07-30T11:00:58;22.30;42.70
6407;DHT22;3236;51.022;6.818;2023-07-30T11:03:26;21.90;46.90
6407;DHT22;3236;51.022;6.818;2023-07-30T11:08:32;21.50;51.00
6407;DHT22;3236;51.022;6.818;2023-07-30T11:13:27;21.80;57.40
6407;DHT22;3236;51.022;6.818;2023-07-30T11:15:54;21.30;60.10
6407;DHT22;3236;51.022;6.818;2023-07-30T11:20:50;20.80;63.60
6407;DHT22;3236;51.022;6.818;2023-07-30T11:23:20;21.10;63.80
6407;DHT22;3236;51.022;6.818;2023-07-30T11:25:48;20.90;63.30
6407;DHT22;3236;51.022;6.818;2023-07-30T11:28:27;20.80;68.00
6407;DHT22;3236;51.022;6.818;2023-07-30T11:31:00;21.20;78.00
6407;DHT22;3236;51.022;6.818;2023-07-30T11:33:30;20.70;77.80
6407;DHT22;3236;51.022;6.818;2023-07-30T11:35:58;20.70;75.60
6407;DHT22;3236;51.022;6.818;2023-07-30T11:38:27;21.10;75.70
6407;DHT22;3236;51.022;6.818;2023-07-30T11:40:55;21.60;68.90
6407;DHT22;3236;51.022;6.818;2023-07-30T11:43:23;21.80;67.90
6407;DHT22;3236;51.022;6.818;2023-07-30T11:46:06;21.60;62.50
6407;DHT22;3236;51.022;6.818;2023-07-30T11:48:35;21.90;59.70
6407;DHT22;3236;51.022;6.818;2023-07-30T11:51:02;21.70;61.50
6407;DHT22;3236;51.022;6.818;2023-07-30T11:53:51;21.70;56.70
6407;DHT22;3236;51.022;6.818;2023-07-30T11:56:20;22.20;64.30
6407;DHT22;3236;51.022;6.818;2023-07-30T11:58:49;22.20;66.50
6407;DHT22;3236;51.022;6.818;2023-07-30T12:01:17;22.10;68.70
6407;DHT22;3236;51.022;6.818;2023-07-30T12:03:45;21.10;73.00
6407;DHT22;3236;51.022;6.818;2023-07-30T12:08:41;19.80;99.90
6407;DHT22;3236;51.022;6.818;2023-07-30T12:11:08;19.00;99.90
6407;DHT22;3236;51.022;6.818;2023-07-30T12:13:42;18.10;99.90
6407;DHT22;3236;51.022;6.818;2023-07-30T12:16:11;17.30;99.90
6407;DHT22;3236;51.022;6.818;2023-07-30T12:18:39;17.80;99.90
6407;DHT22;3236;51.022;6.818;2023-07-30T12:21:08;17.40;99.90
6407;DHT22;3236;51.022;6.818;2023-07-30T12:23:37;17.90;99.90
6407;DHT22;3236;51.022;6.818;2023-07-30T12:26:04;19.20;99.90
6407;DHT22;3236;51.022;6.818;2023-07-30T12:28:37;20.30;99.90
6407;DHT22;3236;51.022;6.818;2023-07-30T12:31:04;20.80;99.90
6407;DHT22;3236;51.022;6.818;2023-07-30T12:38:28;22.20;99.90
6407;DHT22;3236;51.022;6.818;2023-07-30T12:40:55;22.60;98.40
6407;DHT22;3236;51.022;6.818;2023-07-30T12:43:22;23.30;95.40
6407;DHT22;3236;51.022;6.818;2023-07-30T12:45:50;22.60;92.60
6407;DHT22;3236;51.022;6.818;2023-07-30T12:48:17;23.30;84.60
6407;DHT22;3236;51.022;6.818;2023-07-30T12:50:45;24.10;78.10
6407;DHT22;3236;51.022;6.818;2023-07-30T12:53:12;23.30;85.80
6407;DHT22;3236;51.022;6.818;2023-07-30T12:55:42;22.70;85.60
6407;DHT22;3236;51.022;6.818;2023-07-30T13:03:03;22.60;85.60
6407;DHT22;3236;51.022;6.818;2023-07-30T13:05:30;22.30;86.50
6407;DHT22;3236;51.022;6.818;2023-07-30T13:07:57;22.40;96.10
6407;DHT22;3236;51.022;6.818;2023-07-30T13:12:53;20.70;99.90
6407;DHT22;3236;51.022;6.818;2023-07-30T13:17:48;20.60;99.90
6407;DHT22;3236;51.022;6.818;2023-07-30T13:20:15;20.10;99.90
6407;DHT22;3236;51.022;6.818;2023-07-30T13:22:42;20.20;99.90
6407;DHT22;3236;51.022;6.818;2023-07-30T13:25:09;21.90;95.40
6407;DHT22;3236;51.022;6.818;2023-07-30T13:30:06;22.70;85.90
6407;DHT22;3236;51.022;6.818;2023-07-30T13:32:34;23.30;71.00
6407;DHT22;3236;51.022;6.818;2023-07-30T13:37:29;23.60;66.60
6407;DHT22;3236;51.022;6.818;2023-07-30T13:39:55;23.20;64.40
6407;DHT22;3236;51.022;6.818;2023-07-30T13:44:49;22.90;63.80
6407;DHT22;3236;51.022;6.818;2023-07-30T13:47:17;24.30;68.80
6407;DHT22;3236;51.022;6.818;2023-07-30T13:57:10;22.90;77.60
6407;DHT22;3236;51.022;6.818;2023-07-30T13:59:38;23.10;78.70
6407;DHT22;3236;51.022;6.818;2023-07-30T14:04:38;23.00;80.10
6407;DHT22;3236;51.022;6.818;2023-07-30T14:19:24;24.60;30.40
6407;DHT22;3236;51.022;6.818;2023-07-30T14:21:52;25.20;24.20
6407;DHT22;3236;51.022;6.818;2023-07-30T14:24:19;24.70;18.60
6407;DHT22;3236;51.022;6.818;2023-07-30T14:26:48;24.80;13.00
6407;DHT22;3236;51.022;6.818;2023-07-30T14:29:15;25.00;14.20
6407;DHT22;3236;51.022;6.818;2023-07-30T14:31:42;24.40;13.70
6407;DHT22;3236;51.022;6.818;2023-07-30T14:34:09;23.70;17.90
6407;DHT22;3236;51.022;6.818;2023-07-30T14:36:36;24.40;19.70
6407;DHT22;3236;51.022;6.818;2023-07-30T14:39:05;24.40;21.80
6407;DHT22;3236;51.022;6.818;2023-07-30T14:41:32;24.40;19.30
6407;DHT22;3236;51.022;6.818;2023-07-30T14:43:59;24.20;18.20
6407;DHT22;3236;51.022;6.818;2023-07-30T14:51:22;23.60;20.40
6407;DHT22;3236;51.022;6.818;2023-07-30T14:56:18;23.90;20.30
6407;DHT22;3236;51.022;6.818;2023-07-30T14:58:45;23.30;21.70
6407;DHT22;3236;51.022;6.818;2023-07-30T15:01:12;23.80;25.90
6407;DHT22;3236;51.022;6.818;2023-07-30T15:03:39;23.20;27.50
6407;DHT22;3236;51.022;6.818;2023-07-30T15:06:07;23.70;25.40
6407;DHT22;3236;51.022;6.818;2023-07-30T15:11:03;24.50;24.00
6407;DHT22;3236;51.022;6.818;2023-07-30T15:13:34;23.50;25.60
6407;DHT22;3236;51.022;6.818;2023-07-30T15:16:01;24.60;15.90
6407;DHT22;3236;51.022;6.818;2023-07-30T15:20:55;24.00;16.60
6407;DHT22;3236;51.022;6.818;2023-07-30T15:23:22;23.00;18.20
6407;DHT22;3236;51.022;6.818;2023-07-30T15:25:52;23.00;20.60
6407;DHT22;3236;51.022;6.818;2023-07-30T15:28:20;22.70;27.20
6407;DHT22;3236;51.022;6.818;2023-07-30T15:30:48;23.30;24.40
6407;DHT22;3236;51.022;6.818;2023-07-30T15:33:17;23.90;15.40
6407;DHT22;3236;51.022;6.818;2023-07-30T15:35:45;23.60;13.00
6407;DHT22;3236;51.022;6.818;2023-07-30T15:38:12;24.80;9.50
6407;DHT22;3236;51.022;6.818;2023-07-30T15:45:37;24.20;9.90
6407;DHT22;3236;51.022;6.818;2023-07-30T15:53:08;23.40;15.40
6407;DHT22;3236;51.022;6.818;2023-07-30T15:55:35;23.80;19.70
6407;DHT22;3236;51.022;6.818;2023-07-30T15:58:02;23.00;23.90
6407;DHT22;3236;51.022;6.818;2023-07-30T16:02:57;22.40;25.00
6407;DHT22;3236;51.022;6.818;2023-07-30T16:05:27;22.50;27.80
6407;DHT22;3236;51.022;6.818;2023-07-30T16:10:21;23.50;19.80
6407;DHT22;3236;51.022;6.818;2023-07-30T16:12:52;23.70;18.50
6407;DHT22;3236;51.022;6.818;2023-07-30T16:15:19;23.10;19.60
6407;DHT22;3236;51.022;6.818;2023-07-30T16:17:46;22.80;21.90
6407;DHT22;3236;51.022;6.818;2023-07-30T16:20:13;22.50;23.50
6407;DHT22;3236;51.022;6.818;2023-07-30T16:22:43;22.90;17.30
6407;DHT22;3236;51.022;6.818;2023-07-30T16:27:38;22.30;21.30
6407;DHT22;3236;51.022;6.818;2023-07-30T16:30:06;23.40;16.40
6407;DHT22;3236;51.022;6.818;2023-07-30T16:32:34;23.00;19.90
6407;DHT22;3236;51.022;6.818;2023-07-30T16:35:01;22.50;20.40
6407;DHT22;3236;51.022;6.818;2023-07-30T16:37:28;22.00;19.80
6407;DHT22;3236;51.022;6.818;2023-07-30T16:39:57;22.20;16.90
6407;DHT22;3236;51.022;6.818;2023-07-30T16:42:24;21.70;17.60
6407;DHT22;3236;51.022;6.818;2023-07-30T16:44:51;22.50;19.10
6407;DHT22;3236;51.022;6.818;2023-07-30T16:49:48;22.50;21.70
6407;DHT22;3236;51.022;6.818;2023-07-30T16:52:15;21.90;23.10
6407;DHT22;3236;51.022;6.818;2023-07-30T16:54:42;22.60;17.80
6407;DHT22;3236;51.022;6.818;2023-07-30T16:57:11;22.60;17.40
6407;DHT22;3236;51.022;6.818;2023-07-30T16:59:40;22.60;16.60
6407;DHT22;3236;51.022;6.818;2023-07-30T17:02:07;22.90;17.20
6407;DHT22;3236;51.022;6.818;2023-07-30T17:07:02;22.50;19.00
6407;DHT22;3236;51.022;6.818;2023-07-30T17:09:29;22.60;17.40
6407;DHT22;3236;51.022;6.818;2023-07-30T17:11:56;22.90;17.60
6407;DHT22;3236;51.022;6.818;2023-07-30T17:14:24;23.50;17.10
6407;DHT22;3236;51.022;6.818;2023-07-30T17:16:55;22.20;19.00
6407;DHT22;3236;51.022;6.818;2023-07-30T17:19:22;22.60;19.50
6407;DHT22;3236;51.022;6.818;2023-07-30T17:21:49;21.70;21.90
6407;DHT22;3236;51.022;6.818;2023-07-30T17:29:11;21.80;19.80
6407;DHT22;3236;51.022;6.818;2023-07-30T17:31:40;22.20;19.20
6407;DHT22;3236;51.022;6.818;2023-07-30T17:34:07;22.20;21.50
6407;DHT22;3236;51.022;6.818;2023-07-30T17:39:02;21.50;24.00
6407;DHT22;3236;51.022;6.818;2023-07-30T17:41:30;21.60;23.10
6407;DHT22;3236;51.022;6.818;2023-07-30T17:43:57;22.10;28.00
6407;DHT22;3236;51.022;6.818;2023-07-30T17:46:24;21.40;29.10
6407;DHT22;3236;51.022;6.818;2023-07-30T17:48:53;20.90;33.40
6407;DHT22;3236;51.022;6.818;2023-07-30T17:51:20;20.70;46.70
6407;DHT22;3236;51.022;6.818;2023-07-30T17:53:47;20.80;73.90
6407;DHT22;3236;51.022;6.818;2023-07-30T18:01:09;19.30;99.90
6407;DHT22;3236;51.022;6.818;2023-07-30T18:03:36;19.00;99.90
6407;DHT22;3236;51.022;6.818;2023-07-30T18:06:05;18.70;99.90
6407;DHT22;3236;51.022;6.818;2023-07-30T18:13:27;18.40;99.90
6407;DHT22;3236;51.022;6.818;2023-07-30T18:18:21;18.00;99.90
6407;DHT22;3236;51.022;6.818;2023-07-30T18:20:49;17.50;99.90
6407;DHT22;3236;51.022;6.818;2023-07-30T18:23:17;17.30;99.90
6407;DHT22;3236;51.022;6.818;2023-07-30T18:25:44;17.50;99.90
6407;DHT22;3236;51.022;6.818;2023-07-30T18:30:39;17.40;99.90
6407;DHT22;3236;51.022;6.818;2023-07-30T18:33:06;17.00;99.90
6407;DHT22;3236;51.022;6.818;2023-07-30T18:40:29;17.10;99.90
6407;DHT22;3236;51.022;6.818;2023-07-30T18:42:56;16.70;99.90
6407;DHT22;3236;51.022;6.818;2023-07-30T18:45:23;16.90;99.90
6407;DHT22;3236;51.022;6.818;2023-07-30T18:47:50;17.40;99.90
6407;DHT22;3236;51.022;6.818;2023-07-30T18:55:12;17.10;99.90
6407;DHT22;3236;51.022;6.818;2023-07-30T18:57:40;16.50;99.90
6407;DHT22;3236;51.022;6.818;2023-07-30T19:00:08;16.60;99.90
6407;DHT22;3236;51.022;6.818;2023-07-30T19:05:04;16.80;99.90
6407;DHT22;3236;51.022;6.818;2023-07-30T19:07:31;17.00;99.90
6407;DHT22;3236;51.022;6.818;2023-07-30T19:09:58;16.50;99.90
6407;DHT22;3236;51.022;6.818;2023-07-30T19:12:25;17.20;99.90
6407;DHT22;3236;51.022;6.818;2023-07-30T19:19:49;16.60;99.90
6407;DHT22;3236;51.022;6.818;2023-07-30T19:22:17;16.70;99.90